Terminal Aerodrome Forecast
Issued by NWS

Home | Current Version | Previous Version | Text Only | Print | Product List | Glossary On
Versions: 1 2 3 4 5 6 7 8 9 10 11 12 13 14 15 16
558
FTUS44 KEPZ 272321
TAFTCS
TAF
KTCS 272321Z 2800/2824 25018G25KT P6SM FEW150 BKN250
     FM280200 22012G19KT P6SM SCT120 BKN150 OVC250
     FM281500 22019G25KT P6SM SCT080 BKN250
     FM281800 23027G36KT P6SM SCT060=

USA.gov is the U.S. government's official web portal to all federal, state and local government web resources and services.